Terminal Aerodrome Forecast
Issued by NWS Missoula, MT

Home | Current Version | Previous Version | Text Only | Print | Product List | Glossary On
Versions: 1 2 3 4 5 6 7 8 9 10 11 12 13 14 15 16 17 18
000
FTUS45 KMSO 182336
TAFGPI
TAF
KGPI 182336Z 1900/1924 15007KT P6SM VCSH BKN050 OVC070
     FM190800 17005KT P6SM OVC040
     FM191800 20011KT P6SM VCSH BKN060 OVC100=

USA.gov is the U.S. government's official web portal to all federal, state and local government web resources and services.